Tropical Cyclones
[Index]
Main Index Home Page Stock Weather Photos Extreme Storms Discussion Storm News and Storm Chasing Reports Tropical Cyclones / Hurricanes / Typhoons Weather Data and Links Wild Fires / Bushfires Weather Observation Techniques Weather Picture Catalogue Tornado Pictures and Reports Stock Video Footage and DVDs for sale
Season 1991-1992 Tropical Cyclone FRAN Track Map
Season 1991-1992 Summaries: [BoM-AU] [JTWC-AU] [JTWC-SIO] [JTWC-SPAC] [JTWC-SH]
<<- Previous TC | JTWC 1991-1992 Season | Next TC ->>

click for intensity scale information  Lat/long Grid: Show Hide

 Date Labels: Show Hide

Joint Typhoon Warning Centre Cyclone Data

Name: FRAN

04 Mar 1992 00:00 UTC to 17 Mar 1992 06:00 UTC

    date/time    lat    long     hPa   cat  kts
1992-03-04 00   10.4   176.3W                 20          
1992-03-04 06   10.7   176.8W                 20          
1992-03-04 12   11.1   177.2W                 20          
1992-03-04 18   11.5   177.6W                 20          
1992-03-05 00   12.0   177.5W                 20          
1992-03-05 06   12.4   177.5W                 20          
1992-03-05 12   12.8   177.5W                 25          
1992-03-05 18   13.3   177.6W                 25          
1992-03-06 00   13.5   178.0W                 35          
1992-03-06 06   13.7   178.5W           1     45          
1992-03-06 12   13.8   179.2W           1     50          
1992-03-06 18   13.9   179.8W           2     60          
1992-03-07 00   14.2   179.4            2     70          
1992-03-07 06   14.6   178.4            3     80          
1992-03-07 12   14.9   177.3            3     90          
1992-03-07 18   15.4   176.2            4    100          
1992-03-08 00   15.9   174.8            4    105          
1992-03-08 06   16.4   173.4            4    115          
1992-03-08 12   16.8   172.1            5    125          
1992-03-08 18   17.3   170.8            5    140          
1992-03-09 06   18.4   168.4            5    130          
1992-03-09 18   19.2   166.0            4    120          
1992-03-10 06   19.6   163.7            4    110          
1992-03-10 18   19.6   161.4            4    100          
1992-03-11 06   19.8   159.3            3     90          
1992-03-11 18   19.9   157.6            3     85          
1992-03-12 06   19.9   156.3            3     90          
1992-03-12 18   20.0   155.5            3     90          
1992-03-13 06   20.6   155.3            3     85          
1992-03-13 18   20.8   154.7            3     80          
1992-03-14 06   21.0   153.8            2     70          
1992-03-14 18   21.4   152.8            2     60          
1992-03-15 06   22.5   151.9            1     50          
1992-03-15 18   23.8   151.4            1     45          
1992-03-16 06   24.7   152.9            1     45          
1992-03-16 18   24.9   154.6            1     45          
1992-03-17 06   25.3   156.2            1     45          
Winds are 1-min average.

Tropical cyclone tracks developed by Michael Bath using data from the Joint Typhoon Warning Centre Best Tracks and Google Maps.


[Australian Severe Weather index] [Copyright Notice] [Email Contacts] [Search This Site] [Privacy Policy]
Document: tropical_cyclone_fran.htm Updated: 18 September 2016